createdAt,value
2018-06-08T00:01:30.006Z,38.50
2018-06-08T00:03:58.130Z,38.50
2018-06-08T00:06:26.383Z,38.60
2018-06-08T00:08:54.456Z,38.50
2018-06-08T00:11:22.544Z,38.60
2018-06-08T00:13:50.627Z,38.70
2018-06-08T00:16:18.703Z,38.70
2018-06-08T00:18:46.776Z,38.70
2018-06-08T00:21:14.872Z,38.60
2018-06-08T00:23:42.956Z,38.60
2018-06-08T00:26:11.042Z,39.20
2018-06-08T00:28:39.099Z,38.70
2018-06-08T00:31:13.523Z,38.70
2018-06-08T00:33:41.670Z,38.60
2018-06-08T00:36:09.750Z,38.70
2018-06-08T00:38:37.830Z,38.60
2018-06-08T00:41:05.928Z,38.60
2018-06-08T00:43:34.030Z,38.60
2018-06-08T00:46:02.117Z,38.60
2018-06-08T00:53:25.910Z,38.70
2018-06-08T00:55:54.005Z,38.70
2018-06-08T01:00:49.961Z,38.60
2018-06-08T01:03:18.044Z,38.80
2018-06-08T01:05:46.147Z,38.90
2018-06-08T01:08:14.252Z,38.80
2018-06-08T01:10:42.335Z,38.90
2018-06-08T01:13:12.699Z,38.90
2018-06-08T01:15:41.516Z,38.90
2018-06-08T01:18:09.647Z,38.90
2018-06-08T01:20:37.747Z,38.90
2018-06-08T01:23:06.018Z,39.00
2018-06-08T01:25:34.172Z,39.10
2018-06-08T01:28:02.265Z,39.00
2018-06-08T01:30:30.347Z,39.20
2018-06-08T01:32:58.422Z,39.30
2018-06-08T01:35:26.526Z,39.40
2018-06-08T01:40:22.463Z,39.40
2018-06-08T01:42:50.563Z,39.50
2018-06-08T01:45:18.640Z,39.60
2018-06-08T01:47:46.720Z,39.60
2018-06-08T01:50:14.813Z,39.60
2018-06-08T01:52:42.920Z,39.60
2018-06-08T01:55:10.996Z,39.50
2018-06-08T01:57:39.082Z,39.60
2018-06-08T02:00:07.156Z,39.70
2018-06-08T02:02:35.252Z,39.80
2018-06-08T02:05:03.349Z,39.80
2018-06-08T02:07:31.428Z,39.80
2018-06-08T02:09:59.524Z,39.80
2018-06-08T02:12:27.612Z,39.70
2018-06-08T02:14:55.718Z,39.80
2018-06-08T02:17:23.803Z,39.80
2018-06-08T02:19:51.892Z,39.90
2018-06-08T02:22:19.983Z,40.00
2018-06-08T02:24:48.073Z,40.20
2018-06-08T02:27:16.170Z,40.20
2018-06-08T02:29:44.256Z,40.30
2018-06-08T02:32:12.360Z,40.20
2018-06-08T02:34:40.435Z,40.30
2018-06-08T02:37:08.516Z,40.30
2018-06-08T02:39:36.582Z,40.40
2018-06-08T02:42:04.681Z,40.40
2018-06-08T02:47:00.602Z,40.50
2018-06-08T02:49:28.708Z,40.60
2018-06-08T02:51:56.794Z,40.50
2018-06-08T02:54:24.895Z,40.70
2018-06-08T02:56:52.976Z,40.70
2018-06-08T02:59:21.057Z,40.90
2018-06-08T03:01:49.148Z,40.80
2018-06-08T03:04:17.251Z,40.80
2018-06-08T03:06:45.349Z,40.80
2018-06-08T03:09:13.429Z,40.90
2018-06-08T03:11:41.513Z,40.90
2018-06-08T03:14:09.587Z,40.90
2018-06-08T03:16:37.768Z,40.90
2018-06-08T03:19:05.849Z,40.90
2018-06-08T03:21:33.920Z,40.90
2018-06-08T03:24:02.016Z,40.70
2018-06-08T03:26:30.104Z,40.70
2018-06-08T03:28:58.214Z,40.80
2018-06-08T03:31:26.323Z,40.80
2018-06-08T03:33:54.426Z,40.90
2018-06-08T03:36:22.503Z,40.90
2018-06-08T03:38:50.590Z,40.90
2018-06-08T03:41:18.691Z,40.90
2018-06-08T03:46:14.696Z,40.70
2018-06-08T03:48:42.784Z,41.20
2018-06-08T03:51:10.858Z,40.70
2018-06-08T03:53:38.937Z,40.80
2018-06-08T03:56:07.036Z,40.80
2018-06-08T03:58:35.150Z,40.60
2018-06-08T04:01:03.236Z,40.80
2018-06-08T04:03:31.323Z,40.40
2018-06-08T04:05:59.403Z,40.60
2018-06-08T04:08:27.500Z,40.40
2018-06-08T04:10:55.611Z,40.50
2018-06-08T04:13:23.715Z,40.60
2018-06-08T04:15:51.801Z,40.60
2018-06-08T04:18:19.892Z,40.60
2018-06-08T04:20:47.987Z,40.50
2018-06-08T04:23:16.887Z,40.40
2018-06-08T04:25:44.974Z,40.30
2018-06-08T04:28:13.049Z,40.40
2018-06-08T04:30:41.131Z,40.40
2018-06-08T04:33:09.228Z,40.30
2018-06-08T04:35:37.356Z,40.30
2018-06-08T04:38:05.496Z,40.30
2018-06-08T04:40:33.647Z,40.20
2018-06-08T04:43:01.679Z,40.20
2018-06-08T04:45:29.752Z,40.40
2018-06-08T04:47:57.828Z,40.40
2018-06-08T04:50:26.119Z,40.30
2018-06-08T04:52:54.208Z,40.30
2018-06-08T04:55:22.332Z,40.00
2018-06-08T04:57:50.428Z,40.10
2018-06-08T05:00:18.512Z,40.20
2018-06-08T05:02:46.600Z,40.20
2018-06-08T05:07:42.560Z,40.40
2018-06-08T05:10:10.651Z,40.20
2018-06-08T05:12:38.833Z,40.00
2018-06-08T05:15:06.942Z,40.10
2018-06-08T05:17:35.033Z,39.80
2018-06-08T05:24:58.881Z,39.70
2018-06-08T05:27:26.975Z,39.60
2018-06-08T05:29:55.060Z,39.60
2018-06-08T05:32:23.155Z,39.50
2018-06-08T05:34:51.248Z,39.40
2018-06-08T05:37:19.362Z,39.30
2018-06-08T05:39:47.415Z,39.60
2018-06-08T05:42:15.519Z,39.40
2018-06-08T05:44:43.611Z,39.40
2018-06-08T05:47:11.687Z,39.40
2018-06-08T05:49:39.768Z,39.20
2018-06-08T05:52:07.843Z,39.20
2018-06-08T05:57:04.002Z,39.20
2018-06-08T05:59:32.100Z,39.80
2018-06-08T06:02:00.190Z,39.10
2018-06-08T06:04:28.321Z,38.90
2018-06-08T06:06:56.399Z,38.90
2018-06-08T06:09:24.479Z,38.90
2018-06-08T06:11:52.571Z,38.70
2018-06-08T06:14:20.668Z,38.50
2018-06-08T06:16:48.751Z,38.70
2018-06-08T06:19:16.887Z,38.60
2018-06-08T06:21:44.985Z,38.30
2018-06-08T06:24:13.075Z,38.30
2018-06-08T06:29:09.057Z,38.10
2018-06-08T06:31:37.162Z,38.30
2018-06-08T06:34:05.265Z,38.30
2018-06-08T06:36:33.340Z,38.40
2018-06-08T06:39:06.367Z,38.20
2018-06-08T06:41:34.464Z,38.10
2018-06-08T06:44:02.568Z,38.10
2018-06-08T06:48:58.508Z,38.20
2018-06-08T06:53:54.448Z,37.90
2018-06-08T06:56:22.530Z,37.80
2018-06-08T06:58:50.633Z,37.50
2018-06-08T07:01:18.700Z,37.40
2018-06-08T07:03:46.776Z,37.20
2018-06-08T07:06:14.888Z,37.00
2018-06-08T07:08:42.976Z,36.60
2018-06-08T07:11:11.052Z,36.60
2018-06-08T07:13:39.121Z,36.60
2018-06-08T07:16:07.208Z,36.40
2018-06-08T07:18:35.303Z,36.20
2018-06-08T07:21:03.391Z,36.00
2018-06-08T07:23:31.737Z,35.90
2018-06-08T07:25:59.823Z,35.80
2018-06-08T07:28:27.924Z,35.60
2018-06-08T07:30:56.012Z,36.20
2018-06-08T07:33:24.097Z,35.30
2018-06-08T07:35:52.175Z,35.20
2018-06-08T07:38:20.271Z,35.00
2018-06-08T07:40:48.360Z,34.90
2018-06-08T07:43:16.473Z,34.70
2018-06-08T07:45:44.556Z,34.50
2018-06-08T07:48:12.636Z,34.30
2018-06-08T07:50:40.759Z,34.30
2018-06-08T07:53:08.835Z,34.10
2018-06-08T07:55:36.937Z,34.10
2018-06-08T07:58:05.129Z,34.10
2018-06-08T08:00:33.223Z,34.00
2018-06-08T08:03:01.307Z,33.90
2018-06-08T08:05:29.392Z,33.80
2018-06-08T08:07:57.498Z,33.90
2018-06-08T08:10:25.584Z,33.80
2018-06-08T08:12:53.692Z,33.60
2018-06-08T08:15:21.799Z,33.70
2018-06-08T08:17:49.872Z,33.70
2018-06-08T08:20:18.028Z,33.40
2018-06-08T08:22:46.123Z,33.30
2018-06-08T08:25:14.183Z,33.20
2018-06-08T08:27:42.247Z,33.00
2018-06-08T08:30:10.320Z,33.00
2018-06-08T08:32:38.385Z,32.80
2018-06-08T08:35:06.468Z,32.60
2018-06-08T08:37:34.543Z,32.50
2018-06-08T08:40:02.617Z,32.50
2018-06-08T08:42:30.696Z,32.40
2018-06-08T08:44:58.843Z,32.30
2018-06-08T08:47:26.914Z,32.20
2018-06-08T08:49:54.995Z,32.00
2018-06-08T08:52:23.059Z,32.00
2018-06-08T08:54:51.131Z,32.00
2018-06-08T08:57:19.207Z,31.70
2018-06-08T08:59:47.304Z,31.70
2018-06-08T09:02:15.364Z,31.40
2018-06-08T09:04:43.427Z,31.10
2018-06-08T09:07:11.500Z,30.80
2018-06-08T09:09:39.568Z,30.50
2018-06-08T09:12:07.660Z,30.50
2018-06-08T09:14:35.744Z,30.30
2018-06-08T09:17:03.821Z,30.30
2018-06-08T09:19:31.885Z,30.20
2018-06-08T09:21:59.960Z,30.30
2018-06-08T09:24:28.021Z,30.20
2018-06-08T09:26:56.107Z,30.00
2018-06-08T09:29:24.178Z,29.70
2018-06-08T09:31:52.251Z,29.60
2018-06-08T09:34:20.311Z,29.60
2018-06-08T09:36:48.392Z,29.50
2018-06-08T09:39:16.462Z,29.30
2018-06-08T09:41:44.539Z,29.00
2018-06-08T09:44:12.615Z,28.60
2018-06-08T09:46:40.680Z,28.50
2018-06-08T09:49:08.765Z,28.40
2018-06-08T09:51:36.840Z,28.20
2018-06-08T09:54:04.912Z,28.10
2018-06-08T09:56:32.983Z,28.00
2018-06-08T09:59:01.080Z,27.90
2018-06-08T10:01:29.161Z,27.70
2018-06-08T10:03:57.283Z,27.40
2018-06-08T10:06:25.364Z,27.40
2018-06-08T10:08:53.448Z,27.20
2018-06-08T10:11:21.588Z,27.20
2018-06-08T10:13:49.613Z,27.00
2018-06-08T10:16:17.709Z,26.80
2018-06-08T10:18:45.797Z,26.60
2018-06-08T10:21:13.896Z,26.40
2018-06-08T10:23:41.968Z,26.20
2018-06-08T10:26:10.045Z,26.30
2018-06-08T10:28:38.176Z,26.00
2018-06-08T10:31:06.304Z,25.90
2018-06-08T10:33:34.380Z,25.80
2018-06-08T10:36:02.493Z,25.80
2018-06-08T10:38:30.620Z,25.60
2018-06-08T10:40:58.708Z,25.60
2018-06-08T10:43:26.809Z,25.50
2018-06-08T10:45:54.880Z,25.50
2018-06-08T10:48:22.964Z,25.20
2018-06-08T10:50:51.068Z,25.00
2018-06-08T10:53:19.143Z,25.40
2018-06-08T10:55:47.235Z,24.80
2018-06-08T10:58:15.326Z,25.00
2018-06-08T11:00:43.416Z,24.70
2018-06-08T11:03:11.504Z,24.60
2018-06-08T11:05:39.579Z,24.70
2018-06-08T11:08:07.653Z,24.80
2018-06-08T11:10:35.727Z,25.00
2018-06-08T11:13:03.807Z,24.80
2018-06-08T11:15:31.881Z,25.00
2018-06-08T11:17:59.983Z,25.20
2018-06-08T11:20:28.100Z,25.30
2018-06-08T11:22:56.191Z,25.30
2018-06-08T11:25:24.276Z,25.40
2018-06-08T11:27:52.356Z,25.50
2018-06-08T11:30:20.439Z,25.70
2018-06-08T11:32:48.520Z,25.70
2018-06-08T11:35:16.604Z,25.50
2018-06-08T11:37:44.697Z,25.40
2018-06-08T11:40:12.786Z,25.20
2018-06-08T11:42:40.857Z,25.10
2018-06-08T11:45:08.934Z,24.70
2018-06-08T11:47:37.024Z,24.10
2018-06-08T11:50:05.137Z,23.40
2018-06-08T11:52:33.208Z,22.30
2018-06-08T11:55:01.309Z,20.60
2018-06-08T11:57:29.384Z,19.60
2018-06-08T11:59:57.485Z,19.00
2018-06-08T12:02:25.568Z,18.40
2018-06-08T12:04:53.659Z,17.90
2018-06-08T12:07:21.740Z,17.80
2018-06-08T12:09:49.816Z,17.80
2018-06-08T12:12:17.901Z,17.50
2018-06-08T12:14:45.990Z,17.60
2018-06-08T12:17:14.057Z,17.20
2018-06-08T12:19:42.147Z,16.60
2018-06-08T12:22:10.258Z,15.40
2018-06-08T12:24:38.330Z,14.60
2018-06-08T12:27:06.400Z,14.30
2018-06-08T12:29:34.482Z,13.80
2018-06-08T12:32:02.578Z,13.80
2018-06-08T12:34:30.655Z,13.70
2018-06-08T12:36:58.755Z,13.40
2018-06-08T12:39:26.829Z,13.30
2018-06-08T12:41:54.900Z,12.90
2018-06-08T12:44:22.990Z,12.50
2018-06-08T12:46:51.052Z,12.30
2018-06-08T12:49:19.139Z,12.10
2018-06-08T12:51:47.212Z,12.60
2018-06-08T12:54:15.284Z,13.80
2018-06-08T12:56:43.352Z,14.80
2018-06-08T12:59:11.420Z,15.10
2018-06-08T13:01:39.504Z,15.40
2018-06-08T13:04:07.588Z,15.50
2018-06-08T13:06:35.689Z,15.60
2018-06-08T13:09:05.303Z,15.20
2018-06-08T13:11:33.377Z,14.60
2018-06-08T13:14:01.452Z,14.30
2018-06-08T13:16:29.540Z,14.30
2018-06-08T13:18:57.625Z,14.40
2018-06-08T13:21:25.703Z,14.70
2018-06-08T13:26:28.293Z,14.20
2018-06-08T13:28:56.391Z,14.10
2018-06-08T13:31:24.480Z,14.20
2018-06-08T13:33:52.621Z,14.30
2018-06-08T13:36:20.720Z,14.60
2018-06-08T13:38:48.779Z,14.60
2018-06-08T13:41:16.892Z,14.70
2018-06-08T13:43:44.994Z,15.10
2018-06-08T13:46:24.359Z,16.00
2018-06-08T13:48:52.477Z,17.00
2018-06-08T13:51:20.570Z,17.70
2018-06-08T13:53:48.627Z,18.30
2018-06-08T13:56:16.707Z,18.80
2018-06-08T13:58:44.775Z,19.20
2018-06-08T14:01:12.863Z,19.40
2018-06-08T14:03:40.952Z,19.50
2018-06-08T14:06:09.060Z,19.70
2018-06-08T14:08:37.151Z,19.80
2018-06-08T14:11:05.246Z,19.90
2018-06-08T14:13:33.327Z,20.10
2018-06-08T14:16:01.415Z,20.30
2018-06-08T14:18:29.485Z,20.40
2018-06-08T14:20:57.652Z,20.40
2018-06-08T14:23:25.717Z,20.40
2018-06-08T14:25:53.806Z,20.50
2018-06-08T14:28:21.913Z,20.60
2018-06-08T14:30:50.012Z,20.90
2018-06-08T14:33:18.127Z,21.20
2018-06-08T14:35:46.200Z,21.60
2018-06-08T14:38:14.292Z,22.00
2018-06-08T14:40:42.363Z,22.40
2018-06-08T14:43:10.444Z,22.90
2018-06-08T14:45:38.525Z,23.20
2018-06-08T14:48:06.724Z,23.70
2018-06-08T14:50:34.807Z,24.00
2018-06-08T14:53:02.879Z,24.30
2018-06-08T14:55:31.035Z,24.50
2018-06-08T14:57:59.139Z,24.80
2018-06-08T15:00:29.184Z,24.90
2018-06-08T15:02:57.260Z,25.20
2018-06-08T15:05:25.337Z,25.30
2018-06-08T15:07:53.407Z,25.50
2018-06-08T15:10:21.531Z,25.60
2018-06-08T15:12:49.595Z,25.80
2018-06-08T15:15:17.696Z,26.00
2018-06-08T15:17:45.760Z,26.10
2018-06-08T15:20:13.840Z,26.30
2018-06-08T15:22:41.943Z,26.40
2018-06-08T15:25:10.009Z,26.50
2018-06-08T15:27:38.091Z,26.80
2018-06-08T15:30:06.228Z,26.90
2018-06-08T15:32:34.316Z,27.00
2018-06-08T15:35:02.440Z,27.20
2018-06-08T15:37:30.528Z,27.30
2018-06-08T15:39:58.660Z,27.50
2018-06-08T15:42:26.756Z,27.60
2018-06-08T15:44:57.644Z,27.70
2018-06-08T15:47:25.793Z,27.80
2018-06-08T15:49:53.877Z,28.00
2018-06-08T15:52:21.963Z,28.10
2018-06-08T15:54:50.107Z,28.20
2018-06-08T15:57:18.234Z,28.30
2018-06-08T15:59:46.325Z,28.50
2018-06-08T16:02:14.405Z,28.60
2018-06-08T16:04:42.504Z,28.70
2018-06-08T16:07:10.627Z,28.80
2018-06-08T16:09:38.727Z,29.00
2018-06-08T16:12:06.799Z,29.10
2018-06-08T16:14:34.891Z,29.20
2018-06-08T16:17:02.984Z,29.30
2018-06-08T16:19:31.075Z,29.30
2018-06-08T16:21:59.156Z,29.50
2018-06-08T16:24:27.259Z,29.60
2018-06-08T16:26:55.313Z,29.70
2018-06-08T16:29:23.403Z,29.80
2018-06-08T16:31:51.479Z,29.90
2018-06-08T16:34:19.564Z,29.90
2018-06-08T16:36:47.635Z,30.00
2018-06-08T16:39:15.727Z,30.00
2018-06-08T16:41:43.841Z,30.10
2018-06-08T16:44:11.869Z,30.30
2018-06-08T16:46:39.941Z,30.20
2018-06-08T16:49:08.011Z,30.40
2018-06-08T16:51:42.782Z,30.40
2018-06-08T16:54:10.873Z,30.40
2018-06-08T16:56:38.971Z,30.60
2018-06-08T16:59:07.032Z,30.60
2018-06-08T17:01:35.108Z,30.70
2018-06-08T17:04:03.184Z,30.80
2018-06-08T17:06:31.263Z,30.90
2018-06-08T17:08:59.347Z,30.90
2018-06-08T17:11:27.412Z,30.90
2018-06-08T17:13:55.496Z,31.00
2018-06-08T17:16:23.582Z,31.10
2018-06-08T17:18:51.661Z,31.10
2018-06-08T17:21:19.756Z,31.20
2018-06-08T17:23:47.918Z,31.30
2018-06-08T17:26:15.964Z,31.20
2018-06-08T17:28:44.044Z,31.30
2018-06-08T17:31:12.135Z,31.30
2018-06-08T17:33:40.259Z,31.40
2018-06-08T17:36:08.406Z,31.40
2018-06-08T17:38:36.478Z,31.50
2018-06-08T17:41:04.588Z,31.60
2018-06-08T17:43:32.667Z,31.70
2018-06-08T17:46:00.772Z,31.70
2018-06-08T17:48:28.926Z,31.80
2018-06-08T17:50:57.001Z,31.80
2018-06-08T17:53:25.088Z,31.90
2018-06-08T17:55:53.202Z,32.20
2018-06-08T17:58:21.260Z,31.90
2018-06-08T18:00:49.352Z,32.20
2018-06-08T18:03:17.453Z,32.20
2018-06-08T18:05:45.590Z,32.30
2018-06-08T18:08:13.685Z,32.40
2018-06-08T18:10:41.799Z,32.50
2018-06-08T18:13:09.869Z,32.70
2018-06-08T18:15:37.972Z,32.80
2018-06-08T18:18:06.116Z,32.80
2018-06-08T18:20:34.243Z,33.00
2018-06-08T18:23:02.318Z,33.10
2018-06-08T18:25:30.392Z,33.20
2018-06-08T18:27:58.470Z,33.20
2018-06-08T18:30:26.551Z,33.20
2018-06-08T18:32:54.645Z,33.40
2018-06-08T18:35:22.794Z,33.40
2018-06-08T18:37:50.852Z,33.40
2018-06-08T18:40:18.932Z,33.50
2018-06-08T18:42:46.998Z,33.50
2018-06-08T18:45:15.097Z,33.50
2018-06-08T18:47:44.338Z,33.60
2018-06-08T18:50:13.264Z,33.70
2018-06-08T18:52:42.099Z,33.80
2018-06-08T18:55:10.455Z,33.90
2018-06-08T18:57:38.672Z,33.90
2018-06-08T19:00:07.776Z,34.10
2018-06-08T19:02:37.297Z,34.20
2018-06-08T19:05:06.434Z,34.20
2018-06-08T19:07:35.125Z,34.30
2018-06-08T19:10:03.432Z,34.40
2018-06-08T19:12:32.268Z,34.50
2018-06-08T19:15:00.824Z,34.60
2018-06-08T19:17:29.101Z,34.70
2018-06-08T19:19:57.220Z,34.80
2018-06-08T19:22:25.576Z,34.80
2018-06-08T19:24:55.104Z,34.90
2018-06-08T19:27:24.388Z,35.00
2018-06-08T19:29:54.911Z,34.90
2018-06-08T19:32:24.736Z,35.10
2018-06-08T19:34:55.597Z,35.20
2018-06-08T19:37:24.982Z,35.20
2018-06-08T19:39:54.807Z,35.30
2018-06-08T19:42:22.881Z,35.40
2018-06-08T19:44:50.948Z,35.60
2018-06-08T19:47:19.032Z,35.60
2018-06-08T19:49:47.151Z,35.60
2018-06-08T19:52:15.386Z,35.70
2018-06-08T19:54:44.849Z,35.70
2018-06-08T19:57:14.212Z,35.70
2018-06-08T19:59:43.784Z,35.70
2018-06-08T20:02:13.467Z,35.90
2018-06-08T20:04:43.371Z,36.00
2018-06-08T20:07:13.328Z,36.00
2018-06-08T20:09:43.623Z,36.20
2018-06-08T20:12:13.932Z,36.20
2018-06-08T20:14:43.183Z,36.20
2018-06-08T20:17:13.568Z,36.30
2018-06-08T20:19:44.270Z,36.30
2018-06-08T20:22:14.035Z,36.40
2018-06-08T20:24:43.411Z,36.40
2018-06-08T20:27:13.780Z,36.50
2018-06-08T20:29:43.484Z,36.50
2018-06-08T20:32:13.797Z,36.50
2018-06-08T20:34:48.937Z,36.60
2018-06-08T20:37:17.344Z,36.60
2018-06-08T20:39:45.411Z,36.70
2018-06-08T20:42:13.608Z,36.80
2018-06-08T20:44:41.861Z,36.80
2018-06-08T20:47:11.149Z,36.90
2018-06-08T20:49:39.259Z,36.90
2018-06-08T20:52:07.356Z,36.90
2018-06-08T20:54:35.447Z,37.00
2018-06-08T20:57:09.441Z,37.10
2018-06-08T20:59:37.514Z,37.00
2018-06-08T21:02:05.678Z,37.70
2018-06-08T21:04:33.681Z,37.10
2018-06-08T21:07:01.775Z,37.20
2018-06-08T21:09:29.904Z,37.20
2018-06-08T21:11:58.004Z,37.30
2018-06-08T21:14:26.080Z,37.30
2018-06-08T21:16:54.251Z,37.30
2018-06-08T21:19:22.396Z,37.40
2018-06-08T21:21:50.549Z,37.40
2018-06-08T21:24:18.635Z,37.50
2018-06-08T21:26:46.740Z,37.50
2018-06-08T21:29:14.860Z,37.50
2018-06-08T21:31:42.960Z,37.50
2018-06-08T21:34:11.085Z,37.60
2018-06-08T21:36:39.212Z,37.70
2018-06-08T21:39:07.303Z,37.60
2018-06-08T21:41:35.415Z,37.70
2018-06-08T21:44:03.501Z,37.70
2018-06-08T21:46:31.601Z,37.80
2018-06-08T21:48:59.695Z,37.80
2018-06-08T21:51:27.832Z,37.70
2018-06-08T21:53:55.997Z,37.70
2018-06-08T21:56:24.065Z,37.70
2018-06-08T21:58:52.188Z,37.60
2018-06-08T22:01:20.378Z,37.80
2018-06-08T22:03:48.501Z,37.70
2018-06-08T22:06:16.590Z,37.80
2018-06-08T22:08:44.676Z,37.90
2018-06-08T22:11:12.760Z,37.80
2018-06-08T22:13:40.905Z,37.90
2018-06-08T22:16:09.035Z,37.90
2018-06-08T22:18:37.201Z,37.90
2018-06-08T22:21:05.296Z,38.00
2018-06-08T22:23:33.391Z,38.00
2018-06-08T22:26:01.500Z,38.00
2018-06-08T22:28:29.609Z,38.10
2018-06-08T22:30:57.738Z,38.10
2018-06-08T22:33:25.837Z,38.10
2018-06-08T22:35:53.914Z,38.20
2018-06-08T22:38:22.037Z,38.20
2018-06-08T22:40:50.134Z,38.20
2018-06-08T22:43:18.303Z,38.10
2018-06-08T22:45:46.432Z,38.30
2018-06-08T22:48:14.503Z,38.30
2018-06-08T22:50:42.575Z,38.40
2018-06-08T22:53:10.683Z,38.30
2018-06-08T22:55:38.825Z,38.40
2018-06-08T22:58:07.184Z,38.30
2018-06-08T23:00:35.304Z,38.40
2018-06-08T23:03:03.408Z,38.30
2018-06-08T23:05:31.522Z,38.40
2018-06-08T23:08:00.524Z,38.40
2018-06-08T23:12:58.304Z,38.60
2018-06-08T23:15:26.402Z,38.70
2018-06-08T23:17:54.503Z,38.70
2018-06-08T23:25:18.356Z,38.80
2018-06-08T23:27:46.412Z,38.90
2018-06-08T23:30:14.503Z,38.80
2018-06-08T23:32:42.600Z,39.00
2018-06-08T23:35:10.680Z,39.00
2018-06-08T23:37:38.752Z,39.10
2018-06-08T23:40:06.832Z,39.00
2018-06-08T23:42:34.937Z,39.00
2018-06-08T23:45:03.032Z,39.10
2018-06-08T23:47:31.103Z,39.00
2018-06-08T23:49:59.207Z,39.10
2018-06-08T23:52:27.293Z,39.20
2018-06-08T23:54:55.371Z,39.20
2018-06-08T23:59:51.339Z,39.20
